Miami, Florida
Traffic Map
Current Weather Conditions
Miami, Florida
Broken Clouds
Broken Clouds
88°
Feels Like: 103°
Wind Chill: 88° Ceiling: 25000
Heat Index: 103° Visibility: 10mi
Dew Point: 79° Wind: 8mph
Humidity: 75% Direction: 150° (SSE)
Pressure: 30.03in Gusts: 0mph
Raw Report DataKMIA 241753Z 15007KT 10SM SCT024 SCT070 SCT190 BKN250 31/26 A3003 RMK AO2 RAB40E52 SLP170 CB DSNT NE AND W MOV W P0000 60000 T03110261 10311 20267 58012
Traffic Incident Summary
Active as of:
Severity:
Category:
InformationThere was an issue retrieving the traffic information for this location. Please try a different location or try again shortly.
Advertisements
Track Severe Weather on mobile